Detall de PIREP

Printer-friendly versionPDF version

[2017/08/15 08:39:00]
Flight IATA:CT0001
Pilot Number:041
Company ICAO:CAT
Aircraft Type:B738/F
PAX:128
Departing Airport: LEMH
Destination Airport: LEIB
Alternate Airport:LEVC
Online: VATSIM
Route:NEVIC
Flight Level:FL190
No Slew and time accel
No pause
Crash detect
Detect pilot in Cockpit between each 30 and 45 minutes
08:39 Zero fuel Weight: 135503 Lbs, Fuel Weight: 11197 Lbs
08:39 VATSIM:LEMH 150830Z 12014KT 9999 FEW025 27/20 Q1019
08:39 VATSIM:LEIB 150830Z 06010KT 030V090 9999 FEW015 BKN020 28/23 Q1018 NOSIG
08:39 VOICE CATALONIAN
08:48 Parking Brakes off
08:53 Take-off
08:53 Take off Weight: 145932 Lbs
08:53 Wind: 195º @ 007 Knots Heading: 008º
08:53 POS N39º 52´ 16´´ E004º 13´ 13´´
08:53 Gear Up: 161 Knots
08:53 Flaps:3 at 161 Knots
08:54 Flaps:2 at 169 Knots
08:54 Flaps:1 at 187 Knots
08:54 Flaps:0 at 196 Knots
09:00 TOC
09:00 Fuel Weight: 8491 Lb
09:08 Wind:270º@037 Knots Heading: 254º Ground Speed: 396 Knots Altitude 23966 ft
09:16 TOD
09:16 Fuel Weight: 6759 Lb
09:23 Wind:283º@016 Knots Heading: 242º Ground Speed: 257 Knots Altitude 9019 ft
09:24 Flaps:1 at 239 Knots
09:24 Flaps:2 at 236 Knots
09:24 Flaps:3 at 231 Knots
09:31 Flaps:4 at 228 Knots
09:33 Flaps:5 at 196 Knots
09:33 Flaps:6 at 183 Knots
09:33 Flaps:7 at 171 Knots
09:33 Gear Down: 165 Knots
09:33 Flaps:8 at 154 Knots
09:36 TouchDown:Rate -197 ft/min Speed: 133 Knots
09:37 VATSIM:LEIB 150930Z 05008KT 020V100 9999 BKN013 28/23 Q1018 NOSIG
09:37 Land
09:37 Wind:181º@006 Knots
09:37 Heading: 061º
09:37 Flight Duration: 00:44
09:37 Landing Weight: 140900 Lbs
09:37 POS N38º 52´ 25´´ E001º 22´ 31´´
09:39 Parking brakes on
09:39 Block to Block Duration: 00:51
09:39 Final Fuel: 5191 Lbls
09:39 Spent Fuel: 6005 Lbls
09:39 Flight Length: 224 NM
09:39 TOD Land Length: 86 NM

Exportar CSV

Powered by Drupal - Modified by Danger4k